createdAt,value
2023-03-11T00:00:00.251Z,-0.50
2023-03-11T00:00:34.026Z,-0.54
2023-03-11T00:01:06.184Z,-0.54
2023-03-11T00:01:42.924Z,-0.52
2023-03-11T00:02:14.555Z,-0.51
2023-03-11T00:02:47.275Z,-0.52
2023-03-11T00:03:20.252Z,-0.53
2023-03-11T00:03:51.803Z,-0.50
2023-03-11T00:04:23.559Z,-0.53
2023-03-11T00:04:55.116Z,-0.54
2023-03-11T00:05:32.362Z,-0.55
2023-03-11T00:06:04.229Z,-0.57
2023-03-11T00:06:36.029Z,-0.58
2023-03-11T00:07:08.586Z,-0.57
2023-03-11T00:07:40.138Z,-0.52
2023-03-11T00:08:15.000Z,-0.55
2023-03-11T00:08:46.548Z,-0.52
2023-03-11T00:09:18.122Z,-0.40
2023-03-11T00:09:49.744Z,-0.45
2023-03-11T00:10:29.675Z,-0.45
2023-03-11T00:11:02.038Z,-0.45
2023-03-11T00:11:33.682Z,-0.50
2023-03-11T00:12:05.773Z,-0.47
2023-03-11T00:12:37.347Z,-0.51
2023-03-11T00:13:10.915Z,-0.47
2023-03-11T00:13:42.436Z,-0.46
2023-03-11T00:14:14.010Z,-0.49
2023-03-11T00:14:45.548Z,-0.51
2023-03-11T00:15:17.205Z,-0.48
2023-03-11T00:15:50.586Z,-0.51
2023-03-11T00:16:22.166Z,-0.51
2023-03-11T00:16:53.976Z,-0.51
2023-03-11T00:17:25.860Z,-0.51
2023-03-11T00:17:57.589Z,-0.55
2023-03-11T00:18:31.404Z,-0.53
2023-03-11T00:19:03.111Z,-0.51
2023-03-11T00:19:34.662Z,-0.51
2023-03-11T00:20:07.974Z,-0.51
2023-03-11T00:20:42.224Z,-0.50
2023-03-11T00:21:17.742Z,-0.48
2023-03-11T00:21:49.441Z,-0.49
2023-03-11T00:22:20.945Z,-0.49
2023-03-11T00:22:53.210Z,-0.50
2023-03-11T00:23:25.773Z,-0.54
2023-03-11T00:24:01.037Z,-0.51
2023-03-11T00:24:32.733Z,-0.49
2023-03-11T00:25:04.566Z,-0.51
2023-03-11T00:25:38.174Z,-0.51
2023-03-11T00:26:09.712Z,-0.49
2023-03-11T00:26:41.303Z,-0.55
2023-03-11T00:27:12.855Z,-0.55
2023-03-11T00:27:44.746Z,-0.54
2023-03-11T00:28:16.708Z,-0.52
2023-03-11T00:28:49.539Z,-0.52
2023-03-11T00:29:21.112Z,-0.56
2023-03-11T00:29:52.630Z,-0.56
2023-03-11T00:30:25.107Z,-0.54
2023-03-11T00:30:57.576Z,-0.53
2023-03-11T00:31:29.397Z,-0.54
2023-03-11T00:32:00.942Z,-0.53
2023-03-11T00:32:32.724Z,-0.54
2023-03-11T00:33:04.741Z,-0.53
2023-03-11T00:33:37.326Z,-0.51
2023-03-11T00:34:09.263Z,-0.51
2023-03-11T00:34:42.610Z,-0.46
2023-03-11T00:35:16.870Z,-0.62
2023-03-11T00:35:50.088Z,-0.56
2023-03-11T00:36:24.745Z,-0.56
2023-03-11T00:36:56.293Z,-0.58
2023-03-11T00:37:27.833Z,-0.63
2023-03-11T00:38:02.329Z,-0.59
2023-03-11T00:38:33.988Z,-0.67
2023-03-11T00:39:06.676Z,-0.64
2023-03-11T00:39:38.456Z,-0.70
2023-03-11T00:40:19.082Z,-0.72
2023-03-11T00:40:51.480Z,-0.69
2023-03-11T00:41:23.214Z,-0.72
2023-03-11T00:41:56.545Z,-0.75
2023-03-11T00:42:28.146Z,-0.80
2023-03-11T00:43:00.050Z,-0.83
2023-03-11T00:43:31.744Z,-0.83
2023-03-11T00:44:03.512Z,-0.84
2023-03-11T00:44:35.160Z,-0.81
2023-03-11T00:45:07.258Z,-0.88
2023-03-11T00:45:39.140Z,-0.90
2023-03-11T00:46:10.761Z,-0.88
2023-03-11T00:46:42.363Z,-0.89
2023-03-11T00:47:14.233Z,-0.86
2023-03-11T00:47:45.854Z,-0.89
2023-03-11T00:48:17.481Z,-0.95
2023-03-11T00:48:51.027Z,-0.95
2023-03-11T00:49:22.637Z,-0.96
2023-03-11T00:49:54.196Z,-0.97
2023-03-11T00:50:31.185Z,-0.94
2023-03-11T00:51:02.893Z,-0.95
2023-03-11T00:51:34.855Z,-0.98
2023-03-11T00:52:06.778Z,-0.99
2023-03-11T00:52:39.073Z,-1.00
2023-03-11T00:53:11.293Z,-1.04
2023-03-11T00:53:43.414Z,-1.02
2023-03-11T00:54:15.102Z,-1.01
2023-03-11T00:54:46.658Z,-0.99
2023-03-11T00:55:24.391Z,-1.05
2023-03-11T00:55:56.110Z,-1.05
2023-03-11T00:56:27.772Z,-1.03
2023-03-11T00:56:59.404Z,-1.01
2023-03-11T00:57:30.975Z,-0.99
2023-03-11T00:58:07.044Z,-0.98
2023-03-11T00:58:51.649Z,-1.00
2023-03-11T00:59:23.756Z,-1.00
2023-03-11T00:59:56.215Z,-1.06
2023-03-11T01:00:30.490Z,-1.03
2023-03-11T01:01:10.773Z,-1.04
2023-03-11T01:01:42.437Z,-1.00
2023-03-11T01:02:14.127Z,-0.99
2023-03-11T01:02:46.282Z,-1.03
2023-03-11T01:03:18.003Z,-1.00
2023-03-11T01:03:50.734Z,-0.98
2023-03-11T01:04:22.410Z,-0.96
2023-03-11T01:04:55.680Z,-0.93
2023-03-11T01:05:32.833Z,-0.89
2023-03-11T01:06:05.423Z,-0.88
2023-03-11T01:06:45.223Z,-0.91
2023-03-11T01:07:17.291Z,-0.87
2023-03-11T01:07:49.350Z,-0.87
2023-03-11T01:08:20.959Z,-0.87
2023-03-11T01:08:52.563Z,-0.85
2023-03-11T01:09:24.127Z,-0.82
2023-03-11T01:09:55.666Z,-0.81
2023-03-11T01:10:28.856Z,-0.80
2023-03-11T01:11:00.703Z,-0.80
2023-03-11T01:11:32.387Z,-0.78
2023-03-11T01:12:04.130Z,-0.79
2023-03-11T01:12:35.920Z,-0.78
2023-03-11T01:13:07.506Z,-0.80
2023-03-11T01:13:40.311Z,-0.75
2023-03-11T01:14:12.052Z,-0.71
2023-03-11T01:14:44.001Z,-0.73
2023-03-11T01:15:19.745Z,-0.70
2023-03-11T01:15:52.163Z,-0.72
2023-03-11T01:16:23.947Z,-0.67
2023-03-11T01:16:56.899Z,-0.72
2023-03-11T01:17:28.586Z,-0.71
2023-03-11T01:18:00.517Z,-0.69
2023-03-11T01:18:32.114Z,-0.62
2023-03-11T01:19:05.141Z,-0.65
2023-03-11T01:19:36.668Z,-0.63
2023-03-11T01:20:10.537Z,-0.68
2023-03-11T01:20:42.853Z,-0.65
2023-03-11T01:21:15.712Z,-0.66
2023-03-11T01:21:47.363Z,-0.65
2023-03-11T01:22:19.091Z,-0.68
2023-03-11T01:22:50.871Z,-0.67
2023-03-11T01:23:22.853Z,-0.68
2023-03-11T01:23:54.498Z,-0.63
2023-03-11T01:24:26.118Z,-0.65
2023-03-11T01:24:57.690Z,-0.67
2023-03-11T01:25:29.553Z,-0.65
2023-03-11T01:26:02.610Z,-0.68
2023-03-11T01:26:34.214Z,-0.70
2023-03-11T01:27:05.798Z,-0.70
2023-03-11T01:27:37.435Z,-0.69
2023-03-11T01:28:09.621Z,-0.68
2023-03-11T01:28:41.230Z,-0.66
2023-03-11T01:29:12.817Z,-0.71
2023-03-11T01:29:44.338Z,-0.72
2023-03-11T01:30:19.132Z,-0.71
2023-03-11T01:30:50.968Z,-0.71
2023-03-11T01:31:22.673Z,-0.74
2023-03-11T01:31:54.502Z,-0.78
2023-03-11T01:32:26.204Z,-0.77
2023-03-11T01:32:58.420Z,-0.72
2023-03-11T01:33:30.279Z,-0.72
2023-03-11T01:34:01.831Z,-0.78
2023-03-11T01:34:36.031Z,-0.81
2023-03-11T01:35:07.846Z,-0.86
2023-03-11T01:35:40.104Z,-0.81
2023-03-11T01:36:11.697Z,-0.83
2023-03-11T01:36:43.282Z,-0.83
2023-03-11T01:37:15.216Z,-0.82
2023-03-11T01:37:47.544Z,-0.68
2023-03-11T01:38:19.132Z,-0.73
2023-03-11T01:38:51.696Z,-0.76
2023-03-11T01:39:23.255Z,-0.75
2023-03-11T01:39:54.783Z,-0.52
2023-03-11T01:40:32.751Z,-0.60
2023-03-11T01:41:11.210Z,-0.62
2023-03-11T01:41:43.025Z,-0.56
2023-03-11T01:42:14.680Z,-0.56
2023-03-11T01:42:46.310Z,-0.64
2023-03-11T01:43:39.695Z,-0.67
2023-03-11T01:44:14.045Z,-0.73
2023-03-11T01:44:46.339Z,-0.61
2023-03-11T01:45:37.162Z,-0.62
2023-03-11T01:46:13.787Z,-0.65
2023-03-11T01:46:52.408Z,-0.75
2023-03-11T01:47:38.524Z,-0.78
2023-03-11T01:48:10.894Z,-0.76
2023-03-11T01:48:46.970Z,-0.79
2023-03-11T01:49:18.943Z,-0.75
2023-03-11T01:49:50.493Z,-0.76
2023-03-11T01:50:22.608Z,-0.74
2023-03-11T01:50:54.582Z,-0.75
2023-03-11T01:51:41.087Z,-0.66
2023-03-11T01:52:14.071Z,-0.76
2023-03-11T01:52:52.114Z,-0.69
2023-03-11T01:53:24.249Z,-0.72
2023-03-11T01:53:57.324Z,-0.71
2023-03-11T01:54:35.135Z,-0.71
2023-03-11T01:55:07.615Z,-0.73
2023-03-11T01:55:39.399Z,-0.74
2023-03-11T01:56:11.453Z,-0.76
2023-03-11T01:56:44.491Z,-0.76
2023-03-11T01:57:18.540Z,-0.77
2023-03-11T01:57:50.528Z,-0.75
2023-03-11T01:58:25.850Z,-0.77
2023-03-11T01:58:57.943Z,-0.71
2023-03-11T01:59:32.810Z,-0.74
2023-03-11T02:00:09.233Z,-0.71
2023-03-11T02:00:44.387Z,-0.71
2023-03-11T02:01:16.558Z,-0.71
2023-03-11T02:02:10.231Z,-0.73
2023-03-11T02:02:48.493Z,-0.71
2023-03-11T02:03:32.152Z,-0.72
2023-03-11T02:04:04.412Z,-0.70
2023-03-11T02:04:37.418Z,-0.70
2023-03-11T02:05:09.466Z,-0.71
2023-03-11T02:05:41.623Z,-0.72
2023-03-11T02:06:19.636Z,-0.71
2023-03-11T02:06:53.698Z,-0.69
2023-03-11T02:07:26.444Z,-0.71
2023-03-11T02:07:59.341Z,-0.70
2023-03-11T02:08:35.172Z,-0.71
2023-03-11T02:09:08.571Z,-0.65
2023-03-11T02:09:40.311Z,-0.59
2023-03-11T02:10:13.808Z,-0.65
2023-03-11T02:10:46.702Z,-0.66
2023-03-11T02:11:22.416Z,-0.70
2023-03-11T02:11:54.466Z,-0.69
2023-03-11T02:12:29.842Z,-0.69
2023-03-11T02:13:03.833Z,-0.66
2023-03-11T02:13:37.056Z,-0.69
2023-03-11T02:14:09.386Z,-0.73
2023-03-11T02:14:44.083Z,-0.69
2023-03-11T02:15:15.694Z,-0.70
2023-03-11T02:15:48.380Z,-0.71
2023-03-11T02:16:20.109Z,-0.69
2023-03-11T02:16:51.720Z,-0.70
2023-03-11T02:17:24.219Z,-0.71
2023-03-11T02:17:56.485Z,-0.72
2023-03-11T02:18:28.407Z,-0.71
2023-03-11T02:19:07.625Z,-0.70
2023-03-11T02:20:07.311Z,-0.66
2023-03-11T02:20:58.343Z,-0.69
2023-03-11T02:21:31.524Z,-0.69
2023-03-11T02:22:06.240Z,-0.74
2023-03-11T02:22:39.174Z,-0.70
2023-03-11T02:23:13.432Z,-0.70
2023-03-11T02:23:59.514Z,-0.67
2023-03-11T02:24:39.625Z,-0.63
2023-03-11T02:25:39.250Z,-0.67
2023-03-11T02:26:24.093Z,-0.69
2023-03-11T02:26:58.714Z,-0.71
2023-03-11T02:27:33.686Z,-0.71
2023-03-11T02:28:10.110Z,-0.68
2023-03-11T02:28:42.486Z,-0.63
2023-03-11T02:29:14.803Z,-0.68
2023-03-11T02:29:49.822Z,-0.70
2023-03-11T02:30:23.766Z,-0.75
2023-03-11T02:30:56.086Z,-0.72
2023-03-11T02:31:28.665Z,-0.76
2023-03-11T02:32:03.617Z,-0.77
2023-03-11T02:32:35.497Z,-0.73
2023-03-11T02:33:07.207Z,-0.75
2023-03-11T02:33:39.551Z,-0.73
2023-03-11T02:34:16.745Z,-0.78
2023-03-11T02:34:48.393Z,-0.79
2023-03-11T02:35:27.316Z,-0.79
2023-03-11T02:36:00.484Z,-0.81
2023-03-11T02:36:42.155Z,-0.83
2023-03-11T02:37:17.724Z,-0.84
2023-03-11T02:37:55.790Z,-0.87
2023-03-11T02:38:27.982Z,-0.89
2023-03-11T02:39:00.231Z,-0.94
2023-03-11T02:39:38.402Z,-0.96
2023-03-11T02:40:25.760Z,-1.00
2023-03-11T02:41:01.946Z,-1.02
2023-03-11T02:41:38.072Z,-1.09
2023-03-11T02:42:15.795Z,-1.09
2023-03-11T02:42:47.541Z,-1.09
2023-03-11T02:43:26.614Z,-1.11
2023-03-11T02:43:59.126Z,-1.14
2023-03-11T02:44:30.964Z,-1.16
2023-03-11T02:45:11.695Z,-1.16
2023-03-11T02:45:45.088Z,-1.15
2023-03-11T02:46:18.417Z,-1.15
2023-03-11T02:46:50.345Z,-1.16
2023-03-11T02:47:22.358Z,-1.18
2023-03-11T02:47:56.259Z,-1.14
2023-03-11T02:48:29.058Z,-1.11
2023-03-11T02:49:01.040Z,-1.10
2023-03-11T02:49:33.057Z,-1.06
2023-03-11T02:50:05.987Z,-1.03
2023-03-11T02:50:38.076Z,-1.02
2023-03-11T02:51:09.692Z,-1.00
2023-03-11T02:51:41.891Z,-0.99
2023-03-11T02:52:13.566Z,-1.00
2023-03-11T02:52:45.361Z,-0.98
2023-03-11T02:53:17.016Z,-0.96
2023-03-11T02:53:52.167Z,-0.98
2023-03-11T02:54:23.690Z,-0.94
2023-03-11T02:54:55.509Z,-0.97
2023-03-11T02:55:27.064Z,-0.96
2023-03-11T02:55:58.616Z,-0.94
2023-03-11T02:56:30.429Z,-0.94
2023-03-11T02:57:01.992Z,-0.93
2023-03-11T02:57:33.567Z,-0.96
2023-03-11T02:58:05.455Z,-0.93
2023-03-11T02:58:37.188Z,-0.89
2023-03-11T02:59:08.743Z,-0.93
2023-03-11T02:59:40.543Z,-0.88
2023-03-11T03:00:15.822Z,-0.93
2023-03-11T03:00:54.041Z,-0.90
2023-03-11T03:01:26.171Z,-0.94
2023-03-11T03:01:58.041Z,-0.95
2023-03-11T03:02:29.579Z,-0.91
2023-03-11T03:03:01.372Z,-0.91
2023-03-11T03:03:33.449Z,-0.90
2023-03-11T03:04:05.403Z,-0.90
2023-03-11T03:04:38.258Z,-0.94
2023-03-11T03:05:11.192Z,-0.95
2023-03-11T03:05:42.899Z,-0.96
2023-03-11T03:06:14.780Z,-1.00
2023-03-11T03:06:46.324Z,-0.98
2023-03-11T03:07:20.117Z,-0.98
2023-03-11T03:07:51.937Z,-0.99
2023-03-11T03:08:23.516Z,-0.97
2023-03-11T03:08:55.445Z,-0.99
2023-03-11T03:09:27.215Z,-1.03
2023-03-11T03:09:58.862Z,-1.00
2023-03-11T03:10:30.689Z,-1.02
2023-03-11T03:11:03.333Z,-1.03
2023-03-11T03:11:34.864Z,-1.03
2023-03-11T03:12:06.893Z,-0.99
2023-03-11T03:12:39.673Z,-1.07
2023-03-11T03:13:11.333Z,-1.08
2023-03-11T03:13:43.056Z,-1.09
2023-03-11T03:14:14.670Z,-1.08
2023-03-11T03:14:46.358Z,-1.15
2023-03-11T03:15:17.966Z,-1.20
2023-03-11T03:15:50.341Z,-1.15
2023-03-11T03:16:22.128Z,-1.18
2023-03-11T03:16:54.427Z,-1.26
2023-03-11T03:17:26.040Z,-1.25
2023-03-11T03:17:57.760Z,-1.25
2023-03-11T03:18:29.542Z,-1.22
2023-03-11T03:19:01.229Z,-1.24
2023-03-11T03:19:32.742Z,-1.23
2023-03-11T03:20:07.483Z,-1.27
2023-03-11T03:20:39.079Z,-1.23
2023-03-11T03:21:10.873Z,-1.23
2023-03-11T03:21:42.945Z,-1.21
2023-03-11T03:22:14.657Z,-1.24
2023-03-11T03:22:46.550Z,-1.25
2023-03-11T03:23:20.834Z,-1.25
2023-03-11T03:23:52.444Z,-1.28
2023-03-11T03:24:23.970Z,-1.24
2023-03-11T03:24:55.518Z,-1.23
2023-03-11T03:25:27.156Z,-1.21
2023-03-11T03:26:00.420Z,-1.11
2023-03-11T03:26:32.109Z,-1.19
2023-03-11T03:27:03.761Z,-1.20
2023-03-11T03:27:35.815Z,-1.26
2023-03-11T03:28:08.837Z,-1.30
2023-03-11T03:28:43.029Z,-1.30
2023-03-11T03:29:14.811Z,-1.25
2023-03-11T03:29:46.410Z,-1.25
2023-03-11T03:30:18.340Z,-1.24
2023-03-11T03:30:49.976Z,-1.20
2023-03-11T03:31:22.097Z,-1.21
2023-03-11T03:31:53.822Z,-1.20
2023-03-11T03:32:26.142Z,-1.22
2023-03-11T03:32:58.249Z,-1.23
2023-03-11T03:33:29.796Z,-1.26
2023-03-11T03:34:01.364Z,-1.23
2023-03-11T03:34:33.126Z,-1.26
2023-03-11T03:35:05.533Z,-1.26
2023-03-11T03:35:55.020Z,-1.27
2023-03-11T03:36:29.941Z,-1.31
2023-03-11T03:37:06.197Z,-1.44
2023-03-11T03:37:38.247Z,-1.45
2023-03-11T03:38:10.058Z,-1.47
2023-03-11T03:38:43.033Z,-1.51
2023-03-11T03:39:14.807Z,-1.53
2023-03-11T03:39:46.355Z,-1.52
2023-03-11T03:40:18.434Z,-1.54
2023-03-11T03:40:50.041Z,-1.52
2023-03-11T03:41:24.457Z,-1.59
2023-03-11T03:41:56.589Z,-1.59
2023-03-11T03:42:30.054Z,-1.60
2023-03-11T03:43:02.072Z,-1.63
2023-03-11T03:43:35.025Z,-1.67
2023-03-11T03:44:06.716Z,-1.71
2023-03-11T03:44:39.601Z,-1.72
2023-03-11T03:45:11.874Z,-1.76
2023-03-11T03:45:43.679Z,-1.77
2023-03-11T03:46:15.424Z,-1.79
2023-03-11T03:46:51.176Z,-1.83
2023-03-11T03:47:23.022Z,-1.83
2023-03-11T03:47:54.583Z,-1.87
2023-03-11T03:48:28.519Z,-1.83
2023-03-11T03:49:00.440Z,-1.85
2023-03-11T03:49:33.548Z,-1.81
2023-03-11T03:50:07.553Z,-1.82
2023-03-11T03:50:40.353Z,-1.81
2023-03-11T03:51:14.231Z,-1.83
2023-03-11T03:51:51.959Z,-1.90
2023-03-11T03:52:36.848Z,-1.87
2023-03-11T03:53:08.769Z,-1.84
2023-03-11T03:53:42.039Z,-1.88
2023-03-11T03:54:13.804Z,-1.90
2023-03-11T03:54:45.494Z,-1.89
2023-03-11T03:55:17.201Z,-1.88
2023-03-11T03:55:50.833Z,-1.88
2023-03-11T03:56:22.968Z,-1.92
2023-03-11T03:56:54.519Z,-1.97
2023-03-11T03:57:26.393Z,-1.93
2023-03-11T03:57:57.942Z,-1.91
2023-03-11T03:58:33.405Z,-1.85
2023-03-11T03:59:05.009Z,-1.83
2023-03-11T03:59:42.948Z,-1.77
2023-03-11T04:00:15.689Z,-1.73
2023-03-11T04:00:49.661Z,-1.74
2023-03-11T04:01:21.606Z,-1.65
2023-03-11T04:01:53.270Z,-1.60
2023-03-11T04:02:25.474Z,-1.62
2023-03-11T04:02:57.198Z,-1.80
2023-03-11T04:03:38.254Z,-1.83
2023-03-11T04:04:19.394Z,-1.84
2023-03-11T04:04:51.667Z,-1.75
2023-03-11T04:05:26.723Z,-1.85
2023-03-11T04:06:23.614Z,-1.95
2023-03-11T04:07:00.776Z,-1.90
2023-03-11T04:07:35.251Z,-1.82
2023-03-11T04:08:08.431Z,-1.82
2023-03-11T04:08:40.573Z,-1.78
2023-03-11T04:09:13.883Z,-1.78
2023-03-11T04:09:46.268Z,-1.76
2023-03-11T04:10:18.705Z,-1.72
2023-03-11T04:10:57.319Z,-1.69
2023-03-11T04:11:29.329Z,-1.61
2023-03-11T04:12:01.609Z,-1.61
2023-03-11T04:12:33.476Z,-1.60
2023-03-11T04:13:05.348Z,-1.57
2023-03-11T04:13:37.584Z,-1.52
2023-03-11T04:14:10.591Z,-1.50
2023-03-11T04:14:48.763Z,-1.44
2023-03-11T04:15:20.353Z,-1.37
2023-03-11T04:15:52.362Z,-1.35
2023-03-11T04:16:24.758Z,-1.30
2023-03-11T04:17:02.261Z,-1.35
2023-03-11T04:17:34.311Z,-1.32
2023-03-11T04:18:06.502Z,-1.27
2023-03-11T04:18:38.131Z,-1.27
2023-03-11T04:19:11.032Z,-1.30
2023-03-11T04:19:43.096Z,-1.33
2023-03-11T04:20:16.059Z,-1.30
2023-03-11T04:20:50.688Z,-1.27
2023-03-11T04:21:22.302Z,-1.23
2023-03-11T04:21:54.047Z,-1.23
2023-03-11T04:22:27.070Z,-1.29
2023-03-11T04:23:00.581Z,-1.32
2023-03-11T04:23:32.760Z,-1.31
2023-03-11T04:24:04.549Z,-1.29
2023-03-11T04:24:39.566Z,-1.29
2023-03-11T04:25:11.268Z,-1.29
2023-03-11T04:25:42.981Z,-1.26
2023-03-11T04:26:14.542Z,-1.28
2023-03-11T04:26:46.163Z,-1.35
2023-03-11T04:27:20.790Z,-1.37
2023-03-11T04:27:52.492Z,-1.40
2023-03-11T04:28:25.180Z,-1.41
2023-03-11T04:28:57.106Z,-1.44
2023-03-11T04:29:30.511Z,-1.45
2023-03-11T04:30:02.156Z,-1.45
2023-03-11T04:30:35.747Z,-1.54
2023-03-11T04:31:07.578Z,-1.52
2023-03-11T04:31:39.601Z,-1.61
2023-03-11T04:32:37.419Z,-1.61
2023-03-11T04:33:09.516Z,-1.64
2023-03-11T04:33:41.598Z,-1.62
2023-03-11T04:34:15.192Z,-1.64
2023-03-11T04:34:47.402Z,-1.66
2023-03-11T04:35:19.834Z,-1.68
2023-03-11T04:35:51.459Z,-1.67
2023-03-11T04:36:23.595Z,-1.70
2023-03-11T04:36:55.443Z,-1.67
2023-03-11T04:37:33.330Z,-1.69
2023-03-11T04:38:05.478Z,-1.78
2023-03-11T04:38:37.127Z,-1.75
2023-03-11T04:39:09.783Z,-1.79
2023-03-11T04:39:46.215Z,-1.85
2023-03-11T04:40:18.256Z,-1.83
2023-03-11T04:40:50.367Z,-1.84
2023-03-11T04:41:22.285Z,-1.88
2023-03-11T04:41:54.230Z,-1.84
2023-03-11T04:42:28.731Z,-1.87
2023-03-11T04:43:00.447Z,-1.83
2023-03-11T04:43:33.256Z,-1.90
2023-03-11T04:44:04.959Z,-1.98
2023-03-11T04:44:36.772Z,-2.00
2023-03-11T04:45:11.135Z,-1.99
2023-03-11T04:45:43.210Z,-2.07
2023-03-11T04:46:15.612Z,-2.14
2023-03-11T04:46:47.269Z,-2.11
2023-03-11T04:47:21.724Z,-2.05
2023-03-11T04:47:53.305Z,-2.05
2023-03-11T04:48:27.132Z,-2.07
2023-03-11T04:48:59.006Z,-2.13
2023-03-11T04:49:30.983Z,-2.16
2023-03-11T04:50:03.510Z,-2.15
2023-03-11T04:50:35.469Z,-2.22
2023-03-11T04:51:07.521Z,-2.25
2023-03-11T04:51:40.233Z,-2.20
2023-03-11T04:52:13.610Z,-2.19
2023-03-11T04:52:45.642Z,-2.29
2023-03-11T04:53:17.398Z,-2.25
2023-03-11T04:53:48.999Z,-2.38
2023-03-11T04:54:20.574Z,-2.37
2023-03-11T04:54:52.249Z,-2.34
2023-03-11T04:55:23.795Z,-2.47
2023-03-11T04:55:55.486Z,-2.41
2023-03-11T04:56:27.187Z,-2.37
2023-03-11T04:56:58.742Z,-2.37
2023-03-11T04:57:30.342Z,-2.44
2023-03-11T04:58:02.670Z,-2.43
2023-03-11T04:58:34.661Z,-2.53
2023-03-11T04:59:06.336Z,-2.56
2023-03-11T04:59:40.102Z,-2.55
2023-03-11T05:00:12.954Z,-2.60
2023-03-11T05:00:47.539Z,-2.65
2023-03-11T05:01:20.085Z,-2.72
2023-03-11T05:01:51.723Z,-2.64
2023-03-11T05:02:23.310Z,-2.68
2023-03-11T05:03:02.928Z,-2.76
2023-03-11T05:03:35.072Z,-2.72
2023-03-11T05:04:06.773Z,-2.73
2023-03-11T05:04:38.426Z,-2.67
2023-03-11T05:05:10.221Z,-2.58
2023-03-11T05:05:42.535Z,-2.53
2023-03-11T05:06:14.809Z,-2.56
2023-03-11T05:06:46.389Z,-2.55
2023-03-11T05:07:18.793Z,-2.56
2023-03-11T05:07:51.550Z,-2.64
2023-03-11T05:08:24.135Z,-2.70
2023-03-11T05:08:55.732Z,-2.67
2023-03-11T05:09:27.727Z,-2.62
2023-03-11T05:09:59.392Z,-2.59
2023-03-11T05:10:32.329Z,-2.57
2023-03-11T05:11:07.529Z,-2.62
2023-03-11T05:11:39.244Z,-2.62
2023-03-11T05:12:12.236Z,-2.61
2023-03-11T05:12:44.934Z,-2.64
2023-03-11T05:13:16.582Z,-2.60
2023-03-11T05:13:48.395Z,-2.57
2023-03-11T05:14:20.331Z,-2.58
2023-03-11T05:14:52.193Z,-2.58
2023-03-11T05:15:24.188Z,-2.59
2023-03-11T05:15:56.040Z,-2.57
2023-03-11T05:16:28.265Z,-2.46
2023-03-11T05:17:00.005Z,-2.61
2023-03-11T05:17:31.783Z,-2.57
2023-03-11T05:18:05.130Z,-2.54
2023-03-11T05:18:37.857Z,-2.53
2023-03-11T05:19:28.171Z,-2.52
2023-03-11T05:20:00.564Z,-2.48
2023-03-11T05:20:36.684Z,-2.49
2023-03-11T05:21:08.938Z,-2.43
2023-03-11T05:21:41.563Z,-2.62
2023-03-11T05:22:13.505Z,-2.58
2023-03-11T05:22:46.049Z,-2.56
2023-03-11T05:23:18.197Z,-2.51
2023-03-11T05:23:49.804Z,-2.53
2023-03-11T05:24:21.488Z,-2.48
2023-03-11T05:24:53.183Z,-2.48
2023-03-11T05:25:24.902Z,-2.42
2023-03-11T05:25:56.538Z,-2.53
2023-03-11T05:26:28.152Z,-2.56
2023-03-11T05:27:00.116Z,-2.65
2023-03-11T05:27:32.083Z,-2.65
2023-03-11T05:28:03.818Z,-2.53
2023-03-11T05:28:37.190Z,-2.48
2023-03-11T05:29:09.749Z,-2.41
2023-03-11T05:29:42.247Z,-2.36
2023-03-11T05:30:16.589Z,-2.48
2023-03-11T05:30:50.680Z,-2.61
2023-03-11T05:31:23.008Z,-2.63
2023-03-11T05:31:54.780Z,-2.66
2023-03-11T05:32:26.554Z,-2.63
2023-03-11T05:32:59.074Z,-2.61
2023-03-11T05:33:35.305Z,-2.54
2023-03-11T05:34:07.376Z,-2.73
2023-03-11T05:34:39.111Z,-2.83
2023-03-11T05:35:11.100Z,-2.81
2023-03-11T05:35:43.311Z,-2.76
2023-03-11T05:36:15.096Z,-2.70
2023-03-11T05:36:49.085Z,-2.66
2023-03-11T05:37:21.423Z,-2.64
2023-03-11T05:37:55.599Z,-2.66
2023-03-11T05:38:29.109Z,-2.62
2023-03-11T05:39:00.757Z,-2.66
2023-03-11T05:39:32.822Z,-2.54
2023-03-11T05:40:06.885Z,-2.58
2023-03-11T05:40:41.318Z,-2.51
2023-03-11T05:41:12.952Z,-2.58
2023-03-11T05:41:47.380Z,-2.52
2023-03-11T05:42:21.358Z,-2.64
2023-03-11T05:42:55.031Z,-2.76
2023-03-11T05:43:26.954Z,-2.71
2023-03-11T05:43:59.724Z,-2.67
2023-03-11T05:44:32.262Z,-2.57
2023-03-11T05:45:04.023Z,-2.60
2023-03-11T05:45:37.321Z,-2.58
2023-03-11T05:46:09.798Z,-2.64
2023-03-11T05:46:41.595Z,-2.65
2023-03-11T05:47:13.269Z,-2.72
2023-03-11T05:47:45.367Z,-2.71
2023-03-11T05:48:18.863Z,-2.66
2023-03-11T05:48:50.501Z,-2.77
2023-03-11T05:49:22.477Z,-2.80
2023-03-11T05:49:55.893Z,-2.82
2023-03-11T05:50:28.262Z,-2.78
2023-03-11T05:51:00.362Z,-2.95
2023-03-11T05:51:31.940Z,-2.92
2023-03-11T05:52:03.849Z,-2.99
2023-03-11T05:52:36.536Z,-2.99
2023-03-11T05:53:08.111Z,-2.98
2023-03-11T05:53:48.124Z,-2.96
2023-03-11T05:54:23.392Z,-2.89
2023-03-11T05:54:56.437Z,-2.88
2023-03-11T05:55:31.502Z,-2.82
2023-03-11T05:56:04.738Z,-2.85
2023-03-11T05:56:36.348Z,-2.76
2023-03-11T05:57:08.542Z,-2.76
2023-03-11T05:57:40.238Z,-2.78
2023-03-11T05:58:11.940Z,-2.77
2023-03-11T05:58:43.942Z,-2.76
2023-03-11T05:59:16.751Z,-2.80
2023-03-11T05:59:50.726Z,-2.83
2023-03-11T06:00:22.721Z,-2.72
2023-03-11T06:00:57.357Z,-2.80
2023-03-11T06:01:28.916Z,-2.91
2023-03-11T06:02:00.466Z,-2.98
2023-03-11T06:02:31.983Z,-2.73
2023-03-11T06:03:04.010Z,-2.91
2023-03-11T06:03:35.687Z,-2.78
2023-03-11T06:04:09.238Z,-2.89
2023-03-11T06:04:41.173Z,-2.87
2023-03-11T06:05:14.294Z,-2.80
2023-03-11T06:05:49.196Z,-2.88
2023-03-11T06:06:21.025Z,-2.87
2023-03-11T06:06:52.788Z,-2.68
2023-03-11T06:07:27.269Z,-2.78
2023-03-11T06:07:58.926Z,-2.87
2023-03-11T06:08:30.876Z,-2.94
2023-03-11T06:09:04.103Z,-2.93
2023-03-11T06:09:38.452Z,-2.91
2023-03-11T06:10:13.688Z,-2.86
2023-03-11T06:10:48.556Z,-2.83
2023-03-11T06:11:23.861Z,-2.86
2023-03-11T06:11:55.520Z,-2.95
2023-03-11T06:12:30.313Z,-3.07
2023-03-11T06:13:22.495Z,-2.93
2023-03-11T06:13:58.038Z,-2.90
2023-03-11T06:14:32.812Z,-2.87
2023-03-11T06:15:07.299Z,-2.85
2023-03-11T06:15:39.059Z,-2.79
2023-03-11T06:16:11.178Z,-2.79
2023-03-11T06:16:42.896Z,-2.97
2023-03-11T06:17:15.063Z,-3.11
2023-03-11T06:17:47.100Z,-3.04
2023-03-11T06:18:18.709Z,-3.00
2023-03-11T06:18:50.770Z,-3.00
2023-03-11T06:19:22.457Z,-2.95
2023-03-11T06:19:56.287Z,-2.93
2023-03-11T06:20:28.317Z,-2.82
2023-03-11T06:21:01.083Z,-2.88
2023-03-11T06:21:32.714Z,-2.87
2023-03-11T06:22:04.559Z,-2.77
2023-03-11T06:22:37.741Z,-2.70
2023-03-11T06:23:11.510Z,-2.76
2023-03-11T06:23:43.367Z,-2.74
2023-03-11T06:24:14.896Z,-2.68
2023-03-11T06:24:47.409Z,-2.80
2023-03-11T06:25:19.046Z,-2.91
2023-03-11T06:26:02.798Z,-2.88
2023-03-11T06:26:36.749Z,-2.91
2023-03-11T06:27:09.302Z,-2.98
2023-03-11T06:27:41.239Z,-2.92
2023-03-11T06:28:13.405Z,-3.00
2023-03-11T06:28:48.546Z,-3.01
2023-03-11T06:29:24.267Z,-3.03
2023-03-11T06:29:55.828Z,-3.18
2023-03-11T06:30:29.406Z,-3.18
2023-03-11T06:31:28.306Z,-3.26
2023-03-11T06:32:06.301Z,-3.28
2023-03-11T06:32:37.956Z,-3.30
2023-03-11T06:33:10.237Z,-3.25
2023-03-11T06:33:41.857Z,-3.14
2023-03-11T06:34:13.455Z,-3.20
2023-03-11T06:34:45.069Z,-3.07
2023-03-11T06:35:16.831Z,-3.04
2023-03-11T06:35:59.437Z,-3.12
2023-03-11T06:36:31.002Z,-2.99
2023-03-11T06:37:03.539Z,-3.07
2023-03-11T06:37:37.793Z,-2.94
2023-03-11T06:38:09.479Z,-3.03
2023-03-11T06:38:41.249Z,-3.00
2023-03-11T06:39:15.847Z,-3.01
2023-03-11T06:39:52.826Z,-3.00
2023-03-11T06:40:26.227Z,-2.91
2023-03-11T06:41:01.944Z,-2.73
2023-03-11T06:41:34.854Z,-2.73
2023-03-11T06:42:10.192Z,-2.93
2023-03-11T06:42:41.882Z,-2.97
2023-03-11T06:43:15.763Z,-2.71
2023-03-11T06:43:49.043Z,-2.76
2023-03-11T06:44:21.152Z,-2.62
2023-03-11T06:44:52.820Z,-2.67
2023-03-11T06:45:25.108Z,-2.72
2023-03-11T06:45:58.668Z,-2.69
2023-03-11T06:46:30.530Z,-2.63
2023-03-11T06:47:04.854Z,-2.60
2023-03-11T06:47:36.471Z,-2.58
2023-03-11T06:48:08.199Z,-2.44
2023-03-11T06:48:40.285Z,-2.39
2023-03-11T06:49:13.618Z,-2.36
2023-03-11T06:49:46.406Z,-2.20
2023-03-11T06:50:17.987Z,-2.06
2023-03-11T06:50:56.517Z,-1.99
2023-03-11T06:51:28.360Z,-2.08
2023-03-11T06:51:59.882Z,-1.86
2023-03-11T06:52:31.542Z,-1.71
2023-03-11T06:53:06.513Z,-1.64
2023-03-11T06:53:38.746Z,-1.68
2023-03-11T06:54:11.331Z,-1.70
2023-03-11T06:54:43.226Z,-1.70
2023-03-11T06:55:14.902Z,-1.62
2023-03-11T06:55:46.484Z,-1.61
2023-03-11T06:56:19.169Z,-1.67
2023-03-11T06:56:54.840Z,-1.60
2023-03-11T06:57:27.664Z,-1.64
2023-03-11T06:58:02.587Z,-1.68
2023-03-11T06:58:36.951Z,-1.80
2023-03-11T06:59:08.687Z,-1.82
2023-03-11T06:59:40.278Z,-1.83
2023-03-11T07:00:14.018Z,-1.81
2023-03-11T07:00:50.305Z,-1.73
2023-03-11T07:01:24.067Z,-1.84
2023-03-11T07:01:56.009Z,-1.65
2023-03-11T07:02:27.699Z,-1.64
2023-03-11T07:02:59.339Z,-1.67
2023-03-11T07:03:31.554Z,-1.59
2023-03-11T07:04:03.775Z,-1.62
2023-03-11T07:04:36.679Z,-1.60
2023-03-11T07:05:08.578Z,-1.60
2023-03-11T07:05:40.283Z,-1.62
2023-03-11T07:06:16.296Z,-1.57
2023-03-11T07:06:47.849Z,-1.58
2023-03-11T07:07:24.126Z,-1.46
2023-03-11T07:07:55.815Z,-1.51
2023-03-11T07:08:29.332Z,-1.46
2023-03-11T07:09:00.916Z,-1.46